Aérodrome :
LOGIN :

S'inscrire | Disclaimer

   EN    FR    IT 

 










Légende :    VFR   VFR Marginal   IFR   IFR Intensif   IFR Très Intensif
Visi : 
Plafond : 
>= 8 km
>= 3000ft
5 à 8 km
1000 à 3000 ft
1500m à 5 km
500 à 1000 ft
800 à 1500m
200 à 500 ft
< 800m
< 200 ft
Symboles :   Orages  Brouillard  Fortes neiges  Fortes précipitations  Vent > 20 kt
SIGMETs :   Divers  Orages  Givrage  Turbulence  Onde Orograph.  Cendres Volcan.






- Altitude de l'aérodrome : 2026 ft
- Code IATA : TOJ


LETO - Madrid Torrejon

DERNIER METAR :
  • 171900Z 03005KT 9999 FEW034 SCT050 11/09 Q1029 NOSIG

METARs EXPIRÉS :
  • 171800Z 04004KT 9999 FEW038 12/10 Q1028 NOSIG
  • 171700Z VRB01KT 9999 SCT048 13/10 Q1028 NOSIG

TAF TAF LETO
Valide du 17 à 18h jusqu'au 18 à 18h UTC


171700Z 1718/1818 VRB04KT 9999 FEW025 SCT050 TX14/1815Z TN02/1806Z
TEMPO 1718/1720 29006KT
BECMG 1720/1721 02012KT FEW035



MET'MAP, la Météo Aéronautique d'un coup d'oeil ! - Copyright ORBIFLY Décembre 2007 - Disclaimer

ORBIFLY MET'MAP TEAM :

Programmation & Développement : Alexandra Zaïnal
Sur une idée originale de : Baudouin d'Aumeries
Assistance à la programmation : Marc-Olivier Méhu
Soutien technique & logistique : Manuel Goepfert

Contact : metmap@orbifly.com




SOURCES & CREDITS :

   NOAA